Time;durP1;ratioP1;P1;durP2;ratioP2;P2;SDS_P1;SDS_P2;PMS_P1;PMS_P2;Temp;Humidity;BMP_temperature;BMP_pressure;BME280_temperature;BME280_humidity;BME280_pressure;Samples;Min_cycle;Max_cycle;Signal;HPM_P1;HPM_P2
2021/06/18 00:01:58;;;;;;;8.95;4.00;;;26.00;81.90;;;;;;5026828;28;20111;-82
2021/06/18 00:04:24;;;;;;;8.07;4.25;;;25.90;82.10;;;;;;5031901;28;20057;-83
2021/06/18 00:06:50;;;;;;;7.85;4.05;;;25.90;82.20;;;;;;5031933;28;20113;-83
2021/06/18 00:09:16;;;;;;;7.22;3.97;;;25.90;82.20;;;;;;5030927;28;20423;-83
2021/06/18 00:11:41;;;;;;;7.22;3.72;;;25.90;82.40;;;;;;5034559;28;20083;-84
2021/06/18 00:14:07;;;;;;;7.63;3.90;;;25.90;82.40;;;;;;5034252;28;20485;-84
2021/06/18 00:16:34;;;;;;;8.02;4.30;;;25.90;82.30;;;;;;5033653;28;20072;-83
2021/06/18 00:19:00;;;;;;;9.88;4.65;;;25.90;82.40;;;;;;5033533;28;20038;-84
2021/06/18 00:21:26;;;;;;;5.55;3.80;;;25.90;82.20;;;;;;5033918;28;20021;-84
2021/06/18 00:23:52;;;;;;;8.90;4.00;;;25.90;82.20;;;;;;5033096;28;20365;-83
2021/06/18 00:26:17;;;;;;;8.07;4.20;;;25.90;82.50;;;;;;5034825;28;20384;-83
2021/06/18 00:28:43;;;;;;;7.55;4.28;;;25.80;82.50;;;;;;5032930;28;20037;-83
2021/06/18 00:31:12;;;;;;;8.90;4.28;;;25.80;82.60;;;;;;5033311;28;20175;-83
2021/06/18 00:33:37;;;;;;;;;;;25.80;82.80;;;;;;5034764;28;20058;-83
2021/06/18 00:36:03;;;;;;;5.10;3.78;;;25.80;83.00;;;;;;5034188;28;19909;-83
2021/06/18 00:38:29;;;;;;;7.05;3.78;;;25.70;83.60;;;;;;5032947;28;20021;-83
2021/06/18 00:40:55;;;;;;;6.78;3.53;;;25.70;83.10;;;;;;5033812;28;20033;-83
2021/06/18 00:43:21;;;;;;;6.82;3.58;;;25.70;83.20;;;;;;5034255;28;20481;-83
2021/06/18 00:45:47;;;;;;;6.05;4.20;;;25.70;83.40;;;;;;5032085;28;20045;-83
2021/06/18 00:48:13;;;;;;;9.25;4.22;;;25.70;83.60;;;;;;5034342;28;20121;-83
2021/06/18 00:50:41;;;;;;;7.82;4.00;;;25.70;83.80;;;;;;5032045;28;20037;-83
2021/06/18 00:53:07;;;;;;;6.07;3.72;;;25.60;83.90;;;;;;5034695;28;20018;-83
2021/06/18 00:55:34;;;;;;;5.95;3.90;;;25.60;84.00;;;;;;5032611;28;20554;-82
2021/06/18 00:58:02;;;;;;;6.03;3.60;;;25.60;84.80;;;;;;5034104;28;20083;-83
2021/06/18 01:00:27;;;;;;;6.30;4.05;;;25.60;84.20;;;;;;5033045;28;20030;-83
2021/06/18 01:02:53;;;;;;;5.28;3.67;;;25.60;84.90;;;;;;5032721;28;20102;-83
2021/06/18 01:05:20;;;;;;;6.47;4.07;;;25.60;84.40;;;;;;5033489;28;20109;-83
2021/06/18 01:07:57;;;;;;;7.93;3.92;;;25.50;84.10;;;;;;5033905;28;20464;-83
2021/06/18 01:10:50;;;;;;;5.47;4.07;;;25.50;83.90;;;;;;5033235;28;20034;-83
2021/06/18 01:13:40;;;;;;;6.93;3.97;;;25.50;83.50;;;;;;5033791;28;20022;-82
2021/06/18 01:16:16;;;;;;;6.50;3.63;;;25.50;83.30;;;;;;5032851;28;20036;-82
2021/06/18 01:19:04;;;;;;;7.38;4.05;;;25.50;83.20;;;;;;5033759;28;20497;-83
2021/06/18 01:21:34;;;;;;;5.67;4.00;;;25.50;83.20;;;;;;5032743;28;20029;-83
2021/06/18 01:24:37;;;;;;;5.13;3.92;;;25.50;83.20;;;;;;5033768;28;20280;-84
2021/06/18 01:27:16;;;;;;;10.57;4.03;;;25.50;83.40;;;;;;5033774;28;20433;-83
2021/06/18 01:29:46;;;;;;;7.88;3.95;;;25.40;83.40;;;;;;5031603;28;20099;-83
2021/06/18 01:32:18;;;;;;;8.68;4.43;;;25.40;83.40;;;;;;5032290;28;20038;-82
2021/06/18 01:34:45;;;;;;;8.52;4.40;;;25.40;83.40;;;;;;5033178;28;20056;-82
2021/06/18 01:37:15;;;;;;;6.75;4.03;;;25.40;84.10;;;;;;5031452;28;20032;-82
2021/06/18 01:39:43;;;;;;;4.78;3.53;;;25.40;84.10;;;;;;5032950;28;20022;-83
2021/06/18 01:42:10;;;;;;;5.57;3.67;;;25.40;83.60;;;;;;5032966;28;20048;-83
2021/06/18 01:44:37;;;;;;;6.70;3.50;;;25.40;83.70;;;;;;5033026;28;20036;-83
2021/06/18 01:47:06;;;;;;;5.88;3.63;;;25.40;83.80;;;;;;5032462;28;20474;-83
2021/06/18 01:49:36;;;;;;;6.68;3.50;;;25.40;83.90;;;;;;5030940;28;20451;-83
2021/06/18 01:52:03;;;;;;;7.43;3.70;;;25.40;84.00;;;;;;5032736;28;20083;-83
2021/06/18 01:54:30;;;;;;;6.20;3.97;;;25.40;84.10;;;;;;5032748;28;20203;-83
2021/06/18 01:57:00;;;;;;;8.85;4.25;;;25.30;84.10;;;;;;5031331;28;20030;-83
2021/06/18 01:59:28;;;;;;;8.80;4.20;;;25.30;84.10;;;;;;5031803;28;20044;-83
2021/06/18 02:01:54;;;;;;;7.53;4.10;;;25.30;84.20;;;;;;5032177;28;20029;-83
2021/06/18 02:04:20;;;;;;;7.65;4.20;;;25.30;84.30;;;;;;5032715;28;20030;-82
2021/06/18 02:06:48;;;;;;;7.82;4.07;;;25.30;84.30;;;;;;5032353;28;20022;-83
2021/06/18 02:09:16;;;;;;;5.00;3.80;;;25.30;84.40;;;;;;5031775;28;20048;-84
2021/06/18 02:11:43;;;;;;;6.03;4.30;;;25.30;84.50;;;;;;5032435;28;20041;-83
2021/06/18 02:14:15;;;;;;;6.18;3.90;;;25.30;84.60;;;;;;5033301;28;20335;-83
2021/06/18 02:16:45;;;;;;;6.75;4.20;;;25.30;84.80;;;;;;5032129;28;20037;-83
2021/06/18 02:19:14;;;;;;;8.10;4.40;;;25.30;85.00;;;;;;5032074;28;20017;-83
2021/06/18 02:21:41;;;;;;;6.47;4.22;;;25.30;85.10;;;;;;5032362;28;20025;-83
2021/06/18 02:24:07;;;;;;;9.73;4.75;;;25.30;85.80;;;;;;5032948;28;20022;-83
2021/06/18 02:26:33;;;;;;;7.70;4.40;;;25.30;85.40;;;;;;5032365;28;20501;-84
2021/06/18 02:28:59;;;;;;;7.00;4.60;;;25.30;85.60;;;;;;5032166;28;20060;-84
2021/06/18 02:31:26;;;;;;;9.15;4.95;;;25.20;85.70;;;;;;5031302;28;20533;-83
2021/06/18 02:33:52;;;;;;;6.35;4.20;;;25.20;85.90;;;;;;5031916;28;20104;-83
2021/06/18 02:36:19;;;;;;;5.35;3.90;;;25.20;86.10;;;;;;5030297;28;20083;-83
2021/06/18 02:38:46;;;;;;;9.05;4.40;;;25.20;86.30;;;;;;5030408;28;20112;-83
2021/06/18 02:41:12;;;;;;;7.25;4.20;;;25.20;86.60;;;;;;5030859;28;20072;-83
2021/06/18 02:43:38;;;;;;;7.80;4.40;;;25.20;86.70;;;;;;5031711;28;20033;-83
2021/06/18 02:46:04;;;;;;;7.90;4.80;;;25.20;86.80;;;;;;5031292;28;20060;-84
2021/06/18 02:48:36;;;;;;;7.75;4.60;;;25.20;87.00;;;;;;5031459;28;20040;-84
2021/06/18 02:51:34;;;;;;;6.82;4.45;;;25.10;87.10;;;;;;5030927;28;20087;-84
2021/06/18 02:54:13;;;;;;;9.25;4.68;;;25.10;87.30;;;;;;5031394;28;20025;-83
2021/06/18 02:56:48;;;;;;;8.57;4.80;;;25.10;87.40;;;;;;5029249;28;20063;-83
2021/06/18 02:59:21;;;;;;;9.73;5.20;;;25.10;88.10;;;;;;5028145;28;20029;-82
2021/06/18 03:01:49;;;;;;;13.05;4.60;;;25.10;87.40;;;;;;5029303;28;20021;-83
2021/06/18 03:04:23;;;;;;;8.88;4.72;;;25.10;87.30;;;;;;5029857;28;20092;-83
2021/06/18 03:07:15;;;;;;;7.07;4.60;;;25.10;87.30;;;;;;5031026;28;20105;-83
2021/06/18 03:09:52;;;;;;;8.95;5.13;;;25.10;87.40;;;;;;5029248;28;20113;-84
2021/06/18 03:12:22;;;;;;;10.63;4.95;;;25.10;87.30;;;;;;5030078;28;20031;-87
2021/06/18 03:14:50;;;;;;;8.95;5.13;;;25.10;87.30;;;;;;5027870;28;20037;-89
2021/06/18 03:17:18;;;;;;;10.02;4.50;;;25.10;87.40;;;;;;5029716;28;20060;-83
2021/06/18 03:19:55;;;;;;;6.47;4.65;;;25.10;87.40;;;;;;5030637;28;20173;-85
2021/06/18 03:22:22;;;;;;;7.03;4.95;;;25.00;87.30;;;;;;5029431;28;20037;-85
2021/06/18 03:24:51;;;;;;;7.75;5.13;;;25.00;87.50;;;;;;5029454;28;20056;-86
2021/06/18 03:27:20;;;;;;;8.02;5.10;;;25.00;87.50;;;;;;5029240;28;20075;-87
2021/06/18 03:29:48;;;;;;;9.73;5.13;;;25.00;88.00;;;;;;5028964;28;20030;-87
2021/06/18 03:32:14;;;;;;;9.93;4.97;;;25.00;88.30;;;;;;5029471;28;20075;-87
2021/06/18 03:34:42;;;;;;;9.18;5.22;;;25.00;88.40;;;;;;5033569;28;20041;-86
2021/06/18 03:37:08;;;;;;;8.27;5.57;;;25.00;89.20;;;;;;5029312;28;20098;-85
2021/06/18 03:39:35;;;;;;;11.60;5.88;;;25.00;88.90;;;;;;5029051;28;20033;-89
2021/06/18 03:42:02;;;;;;;8.05;5.13;;;25.00;88.90;;;;;;5029553;28;20402;-87
2021/06/18 03:44:28;;;;;;;10.32;5.63;;;24.90;89.00;;;;;;5028678;28;20419;-86
2021/06/18 03:46:55;;;;;;;8.23;5.50;;;24.90;89.30;;;;;;5030625;28;20116;-87
2021/06/18 03:49:24;;;;;;;11.65;6.60;;;24.90;89.50;;;;;;5028723;28;20017;-87
2021/06/18 03:51:51;;;;;;;10.27;5.97;;;24.90;89.70;;;;;;5029115;28;20044;-88
2021/06/18 03:54:17;;;;;;;8.55;5.63;;;24.80;89.80;;;;;;5029185;28;20034;-88
2021/06/18 03:56:48;;;;;;;6.53;5.18;;;24.90;90.00;;;;;;5030693;28;20181;-88
2021/06/18 03:59:15;;;;;;;12.55;5.85;;;24.80;90.10;;;;;;5028790;28;20116;-86
2021/06/18 04:01:48;;;;;;;10.03;6.20;;;24.90;90.10;;;;;;5030471;28;20093;-87
2021/06/18 04:04:14;;;;;;;8.95;5.13;;;24.90;90.20;;;;;;5029267;28;20021;-88
2021/06/18 04:06:40;;;;;;;9.40;5.78;;;24.90;90.20;;;;;;5030497;28;20390;-87
2021/06/18 04:09:06;;;;;;;7.13;5.25;;;24.90;90.30;;;;;;5030131;28;20083;-88
2021/06/18 04:11:31;;;;;;;8.32;5.57;;;24.90;90.30;;;;;;5030359;28;20462;-88
2021/06/18 04:13:57;;;;;;;9.32;6.07;;;24.90;90.30;;;;;;5029307;28;20120;-87
2021/06/18 04:16:23;;;;;;;8.18;6.00;;;24.90;90.40;;;;;;5028800;28;20544;-87
2021/06/18 04:18:49;;;;;;;10.13;6.50;;;24.90;90.50;;;;;;5030795;28;20030;-87
2021/06/18 04:21:19;;;;;;;9.75;5.97;;;24.90;90.50;;;;;;5030704;28;20041;-87
2021/06/18 04:23:44;;;;;;;10.20;6.40;;;24.90;90.50;;;;;;5030783;28;20025;-86
2021/06/18 04:26:23;;;;;;;10.38;6.10;;;24.90;90.60;;;;;;5030759;28;20036;-89
2021/06/18 04:28:50;;;;;;;10.48;6.25;;;24.90;90.60;;;;;;5028391;28;20110;-88
2021/06/18 04:31:15;;;;;;;9.88;6.50;;;24.90;90.70;;;;;;5029341;28;20109;-85
2021/06/18 04:33:41;;;;;;;10.75;6.60;;;24.90;90.80;;;;;;5030328;28;20439;-87
2021/06/18 04:36:07;;;;;;;8.40;6.15;;;24.90;91.00;;;;;;5028570;28;20038;-86
2021/06/18 04:38:35;;;;;;;9.32;6.70;;;24.90;91.10;;;;;;5030225;28;20459;-86
2021/06/18 04:41:01;;;;;;;13.52;7.95;;;24.90;91.10;;;;;;5029615;28;20102;-85
2021/06/18 04:43:27;;;;;;;11.18;6.60;;;24.90;91.10;;;;;;5028719;28;20496;-85
2021/06/18 04:45:52;;;;;;;9.38;6.55;;;24.90;91.10;;;;;;5028053;28;20033;-84
2021/06/18 04:48:19;;;;;;;9.52;6.15;;;24.90;91.10;;;;;;5028707;28;20587;-84
2021/06/18 04:50:45;;;;;;;8.55;6.60;;;24.90;91.10;;;;;;5028900;28;20102;-84
2021/06/18 04:53:11;;;;;;;9.13;6.10;;;24.90;91.20;;;;;;5028651;28;20025;-84
2021/06/18 04:55:38;;;;;;;9.55;6.45;;;25.00;91.20;;;;;;5031259;28;20150;-84
2021/06/18 04:58:04;;;;;;;12.23;6.65;;;24.90;91.30;;;;;;5033394;28;20040;-84
2021/06/18 05:00:30;;;;;;;9.50;6.53;;;25.00;91.30;;;;;;5032231;28;20092;-83
2021/06/18 05:02:55;;;;;;;10.45;6.55;;;25.00;91.40;;;;;;5033130;28;20518;-83
2021/06/18 05:05:21;;;;;;;8.10;5.65;;;25.00;91.40;;;;;;5033072;28;20113;-83
2021/06/18 05:07:54;;;;;;;12.73;7.00;;;25.00;91.50;;;;;;5033031;28;20112;-83
2021/06/18 05:10:21;;;;;;;11.07;7.00;;;25.00;91.60;;;;;;5030893;28;20040;-84
2021/06/18 05:12:47;;;;;;;11.30;6.50;;;25.00;91.50;;;;;;5032968;28;20548;-84
2021/06/18 05:15:13;;;;;;;34.88;12.02;;;25.00;91.50;;;;;;5031484;28;20025;-84
2021/06/18 05:17:38;;;;;;;27.33;11.13;;;25.10;91.70;;;;;;5032479;28;20091;-84
2021/06/18 05:20:05;;;;;;;21.35;9.93;;;25.10;91.60;;;;;;5030867;28;20470;-83
2021/06/18 05:22:31;;;;;;;21.33;10.25;;;25.10;92.00;;;;;;5032827;28;20088;-84
2021/06/18 05:24:57;;;;;;;13.77;8.10;;;25.10;91.80;;;;;;5032997;28;20037;-84
2021/06/18 05:27:22;;;;;;;9.63;6.60;;;25.10;91.60;;;;;;5032804;28;20026;-84
2021/06/18 05:29:48;;;;;;;9.52;6.60;;;25.10;91.60;;;;;;5032351;28;20037;-84
2021/06/18 05:32:16;;;;;;;12.48;7.45;;;25.20;91.60;;;;;;5032822;28;20104;-84
2021/06/18 05:34:42;;;;;;;9.50;6.93;;;25.20;91.70;;;;;;5032853;28;20025;-83
2021/06/18 05:37:08;;;;;;;10.73;7.07;;;25.20;91.70;;;;;;5032798;28;20482;-85
2021/06/18 05:39:34;;;;;;;14.32;7.97;;;25.20;91.70;;;;;;5035644;28;20064;-86
2021/06/18 05:42:00;;;;;;;12.90;7.40;;;25.30;91.50;;;;;;5031812;28;20021;-86
2021/06/18 05:44:25;;;;;;;11.45;7.40;;;25.30;91.40;;;;;;5032634;28;20022;-85
2021/06/18 05:46:51;;;;;;;11.90;6.68;;;25.30;91.40;;;;;;5032751;28;20032;-87
2021/06/18 05:49:17;;;;;;;9.20;6.35;;;25.30;91.40;;;;;;5033319;28;20103;-85
2021/06/18 05:51:42;;;;;;;11.70;7.50;;;25.30;91.50;;;;;;5032369;28;20028;-84
2021/06/18 05:54:08;;;;;;;10.43;7.03;;;25.30;91.50;;;;;;5032172;28;20025;-85
2021/06/18 05:56:34;;;;;;;13.48;8.13;;;25.30;91.40;;;;;;5032156;28;20021;-85
2021/06/18 05:58:59;;;;;;;12.63;8.00;;;25.30;91.30;;;;;;5030394;28;20100;-83
2021/06/18 06:01:25;;;;;;;10.18;7.38;;;25.40;91.30;;;;;;5031928;28;20025;-82
2021/06/18 06:03:54;;;;;;;11.15;7.25;;;25.40;91.40;;;;;;5032159;28;20091;-82
2021/06/18 06:06:21;;;;;;;16.00;9.90;;;25.40;91.40;;;;;;5029863;28;20025;-83
2021/06/18 06:08:47;;;;;;;12.02;8.25;;;25.50;91.30;;;;;;5030416;28;20075;-81
2021/06/18 06:11:12;;;;;;;14.27;8.70;;;25.50;91.30;;;;;;5031545;28;20065;-83
2021/06/18 06:13:38;;;;;;;15.75;8.65;;;25.50;91.20;;;;;;5030589;28;20033;-85
2021/06/18 06:16:04;;;;;;;9.57;7.75;;;25.50;91.20;;;;;;5030705;28;20026;-82
2021/06/18 06:18:30;;;;;;;11.85;7.60;;;25.50;91.20;;;;;;5032806;28;20048;-87
2021/06/18 06:20:56;;;;;;;11.50;8.25;;;25.50;91.30;;;;;;5030725;28;20018;-86
2021/06/18 06:23:22;;;;;;;8.90;7.03;;;25.50;91.40;;;;;;5032655;28;20100;-86
2021/06/18 06:25:47;;;;;;;10.80;7.72;;;25.50;91.40;;;;;;5029334;28;20539;-85
2021/06/18 06:28:13;;;;;;;11.55;8.25;;;25.50;91.30;;;;;;5029687;28;20064;-84
2021/06/18 06:30:39;;;;;;;13.02;8.90;;;25.50;91.30;;;;;;5031138;28;20031;-85
2021/06/18 06:33:04;;;;;;;13.07;7.53;;;25.60;91.20;;;;;;5031735;28;20175;-84
2021/06/18 06:35:30;;;;;;;10.57;7.60;;;25.60;91.30;;;;;;5031287;28;20452;-84
2021/06/18 06:37:56;;;;;;;12.85;8.57;;;25.60;91.60;;;;;;5031768;28;20033;-85
2021/06/18 06:40:23;;;;;;;9.65;7.00;;;25.60;91.20;;;;;;5031047;28;20017;-83
2021/06/18 06:42:51;;;;;;;11.23;7.60;;;25.60;91.20;;;;;;5029983;28;20450;-83
2021/06/18 06:45:17;;;;;;;17.55;10.05;;;25.60;91.50;;;;;;5030128;28;20028;-84
2021/06/18 06:47:43;;;;;;;12.50;9.32;;;25.60;91.10;;;;;;5031280;28;20428;-89
2021/06/18 06:50:10;;;;;;;9.88;7.22;;;25.60;91.10;;;;;;5029497;28;20057;-85
2021/06/18 06:52:36;;;;;;;10.18;7.32;;;25.60;91.30;;;;;;5029800;28;20075;-86
2021/06/18 06:55:02;;;;;;;10.93;8.10;;;25.70;91.30;;;;;;5030131;28;20468;-86
2021/06/18 06:57:28;;;;;;;11.20;8.32;;;25.60;91.40;;;;;;5029655;28;20044;-87
2021/06/18 06:59:53;;;;;;;13.20;10.00;;;25.60;91.20;;;;;;5029412;28;20475;-87
2021/06/18 07:02:19;;;;;;;9.85;7.93;;;25.70;91.20;;;;;;5029495;28;20022;-86
2021/06/18 07:04:45;;;;;;;14.30;8.93;;;25.70;91.30;;;;;;5026128;28;20754;-86
2021/06/18 07:07:11;;;;;;;15.55;11.15;;;25.70;91.60;;;;;;5029444;28;20083;-86
2021/06/18 07:09:40;;;;;;;18.30;11.20;;;25.70;91.10;;;;;;5028977;28;20024;-86
2021/06/18 07:12:07;;;;;;;19.52;11.48;;;25.70;91.10;;;;;;5029690;28;20097;-90
2021/06/18 07:14:37;;;;;;;17.17;9.65;;;25.70;91.10;;;;;;5031479;28;20029;-90
2021/06/18 07:17:03;;;;;;;14.23;10.98;;;25.70;91.20;;;;;;5030562;28;20083;-89
2021/06/18 07:19:29;;;;;;;13.30;9.30;;;25.70;91.10;;;;;;5028935;28;20021;-90
2021/06/18 07:21:55;;;;;;;13.60;9.27;;;25.70;91.20;;;;;;5031480;28;20029;-91
2021/06/18 07:24:20;;;;;;;12.70;9.05;;;25.80;91.40;;;;;;5029637;28;20366;-86
2021/06/18 07:26:46;;;;;;;20.70;11.65;;;25.80;91.40;;;;;;5029909;28;20038;-88
2021/06/18 07:29:12;;;;;;;13.05;9.15;;;25.80;91.30;;;;;;5030950;28;20037;-90
2021/06/18 07:31:37;;;;;;;14.55;9.02;;;25.80;91.30;;;;;;5030981;28;20048;-83
2021/06/18 07:34:03;;;;;;;16.50;9.90;;;25.80;91.30;;;;;;5030877;28;20116;-84
2021/06/18 07:36:30;;;;;;;12.80;8.68;;;25.90;91.20;;;;;;5031304;28;20025;-86
2021/06/18 07:38:55;;;;;;;15.50;9.93;;;25.90;91.80;;;;;;5032198;28;20033;-82
2021/06/18 07:41:21;;;;;;;17.95;12.15;;;25.90;93.50;;;;;;5034370;28;20030;-81
2021/06/18 07:43:47;;;;;;;18.52;13.13;;;25.80;92.90;;;;;;5034150;28;20018;-81
2021/06/18 07:46:13;;;;;;;20.25;14.00;;;25.80;91.80;;;;;;5030753;28;20052;-81
2021/06/18 07:48:39;;;;;;;15.07;11.00;;;25.80;92.10;;;;;;5031319;28;20033;-82
2021/06/18 07:51:05;;;;;;;15.95;10.80;;;25.80;92.90;;;;;;5030498;28;20029;-82
2021/06/18 07:53:30;;;;;;;14.70;11.50;;;25.70;94.50;;;;;;5028051;28;20022;-84
2021/06/18 07:55:56;;;;;;;18.02;13.40;;;25.70;93.40;;;;;;5028446;28;20029;-84
2021/06/18 07:58:22;;;;;;;14.70;10.77;;;25.70;94.40;;;;;;5029131;28;20033;-82
2021/06/18 08:00:47;;;;;;;16.67;11.77;;;25.70;95.30;;;;;;5030727;28;20026;-83
2021/06/18 08:03:13;;;;;;;16.92;13.27;;;25.70;93.60;;;;;;5032920;28;20022;-82
2021/06/18 08:05:39;;;;;;;17.30;12.95;;;25.70;92.60;;;;;;5032891;28;20025;-81
2021/06/18 08:08:05;;;;;;;16.20;12.82;;;25.70;94.20;;;;;;5032066;28;20210;-81
2021/06/18 08:10:30;;;;;;;14.82;12.05;;;25.70;95.60;;;;;;5031042;28;20085;-82
2021/06/18 08:12:56;;;;;;;20.73;12.95;;;25.60;96.30;;;;;;5032334;28;20022;-81
2021/06/18 08:15:22;;;;;;;17.67;11.63;;;25.60;94.50;;;;;;5031449;28;20104;-81
2021/06/18 08:17:47;;;;;;;14.73;11.70;;;25.60;95.40;;;;;;5032887;28;20389;-82
2021/06/18 08:20:16;;;;;;;17.58;12.18;;;25.60;96.30;;;;;;5032299;28;20033;-82
2021/06/18 08:22:42;;;;;;;17.00;12.07;;;25.70;96.80;;;;;;5030907;28;20044;-81
2021/06/18 08:25:11;;;;;;;15.18;11.88;;;25.60;97.50;;;;;;5029723;28;20026;-82
2021/06/18 08:27:36;;;;;;;11.57;9.98;;;25.70;98.20;;;;;;5029342;28;20030;-82
2021/06/18 08:30:04;;;;;;;15.10;11.40;;;25.70;97.00;;;;;;5031558;28;20501;-82
2021/06/18 08:32:29;;;;;;;16.40;11.60;;;25.70;97.20;;;;;;5033285;28;20080;-82
2021/06/18 08:34:55;;;;;;;15.68;12.38;;;25.70;98.00;;;;;;5034839;28;20478;-82
2021/06/18 08:37:20;;;;;;;13.65;11.13;;;25.70;98.60;;;;;;5035614;28;20482;-82
2021/06/18 08:39:46;;;;;;;16.38;10.05;;;25.70;98.60;;;;;;5036479;28;20025;-81
2021/06/18 08:42:12;;;;;;;14.38;10.43;;;25.70;95.30;;;;;;5036923;28;20072;-82
2021/06/18 08:44:38;;;;;;;11.93;8.77;;;25.70;96.20;;;;;;5035079;28;20728;-81
2021/06/18 08:47:04;;;;;;;14.10;10.45;;;25.70;96.40;;;;;;5035803;28;20023;-82
2021/06/18 08:49:30;;;;;;;16.63;10.05;;;25.60;97.20;;;;;;5034642;28;20033;-82
2021/06/18 08:51:56;;;;;;;15.90;10.38;;;25.60;97.60;;;;;;5034482;28;20387;-81
2021/06/18 08:54:21;;;;;;;15.80;10.57;;;25.60;98.00;;;;;;5034279;28;20029;-82
2021/06/18 08:56:47;;;;;;;11.40;9.40;;;25.50;98.30;;;;;;5034479;28;20025;-82
2021/06/18 08:59:13;;;;;;;14.88;10.65;;;25.60;98.20;;;;;;5032918;28;20030;-86
2021/06/18 09:01:38;;;;;;;16.23;10.88;;;25.60;98.60;;;;;;5034064;28;20017;-82
2021/06/18 09:04:06;;;;;;;13.20;10.48;;;25.50;98.70;;;;;;5035357;28;20395;-82
2021/06/18 09:06:42;;;;;;;14.83;9.83;;;25.50;98.70;;;;;;5033184;28;20116;-82
2021/06/18 09:09:22;;;;;;;13.43;10.10;;;25.50;98.70;;;;;;5034381;28;20052;-81
2021/06/18 09:11:58;;;;;;;13.65;10.65;;;25.60;98.90;;;;;;5034950;28;20021;-82
2021/06/18 09:14:35;;;;;;;14.63;10.30;;;25.60;98.50;;;;;;5034860;28;20021;-81
2021/06/18 09:17:04;;;;;;;14.10;10.38;;;25.60;98.40;;;;;;5033820;28;20033;-83
2021/06/18 09:19:30;;;;;;;12.73;8.60;;;25.60;98.50;;;;;;5033289;28;20017;-83
2021/06/18 09:22:08;;;;;;;12.60;8.18;;;25.70;96.70;;;;;;5032771;28;20476;-87
2021/06/18 09:24:40;;;;;;;11.30;7.20;;;25.70;97.10;;;;;;5032217;28;20030;-88
2021/06/18 09:27:06;;;;;;;14.23;7.90;;;25.60;97.60;;;;;;5032108;28;20501;-87
2021/06/18 09:29:33;;;;;;;11.38;7.53;;;25.50;97.50;;;;;;5032468;28;20078;-88
2021/06/18 09:32:00;;;;;;;18.27;10.57;;;25.40;98.30;;;;;;5032277;28;20025;-90
2021/06/18 09:37:51;;;;;;;14.40;9.60;;;25.30;99.10;;;;;;5033115;28;20033;-88
2021/06/18 09:40:20;;;;;;;12.07;9.88;;;25.20;99.90;;;;;;5024797;28;20169;-88
2021/06/18 09:42:57;;;;;;;11.50;7.63;;;25.20;99.90;;;;;;5032191;28;20095;-87
2021/06/18 09:45:25;;;;;;;10.00;7.53;;;25.10;99.40;;;;;;5032621;28;20032;-89
2021/06/18 09:47:51;;;;;;;11.55;8.00;;;25.00;99.50;;;;;;5031586;28;20026;-87
2021/06/18 09:50:25;;;;;;;10.57;7.57;;;25.00;99.90;;;;;;5031156;28;20036;-86
2021/06/18 09:52:52;;;;;;;11.88;7.85;;;25.00;99.90;;;;;;5031764;28;20083;-90
2021/06/18 09:55:23;;;;;;;11.25;8.20;;;24.90;99.90;;;;;;5031454;28;20025;-87
2021/06/18 09:57:55;;;;;;;10.27;7.65;;;24.80;99.90;;;;;;5031211;28;20026;-88
2021/06/18 10:00:24;;;;;;;10.45;8.13;;;24.80;99.90;;;;;;5029319;28;20075;-88
2021/06/18 10:02:54;;;;;;;13.48;7.60;;;24.80;99.90;;;;;;5030798;28;20137;-87
2021/06/18 10:05:24;;;;;;;11.60;7.82;;;24.80;99.90;;;;;;5029375;28;20132;-86
2021/06/18 10:07:52;;;;;;;10.45;8.35;;;24.80;99.90;;;;;;5029119;28;20045;-88
2021/06/18 10:10:26;;;;;;;12.10;8.68;;;24.80;99.90;;;;;;5029279;28;20084;-87
2021/06/18 10:12:54;;;;;;;11.38;8.32;;;24.80;99.90;;;;;;5031583;28;20029;-88
2021/06/18 10:15:21;;;;;;;12.35;9.35;;;24.80;99.90;;;;;;5050199;22;20045;-88
2021/06/18 10:17:50;;;;;;;12.75;9.13;;;24.80;99.90;;;;;;4994926;28;20034;-89
2021/06/18 10:20:18;;;;;;;10.60;8.35;;;24.80;99.90;;;;;;4993984;28;20067;-89
2021/06/18 10:23:01;;;;;;;;;;;24.80;99.90;;;;;;4995206;28;20084;-89
2021/06/18 10:25:35;;;;;;;12.75;8.60;;;24.80;99.90;;;;;;4995279;28;19909;-89
2021/06/18 10:28:06;;;;;;;12.65;8.35;;;24.80;99.90;;;;;;4995461;28;20041;-86
2021/06/18 10:30:45;;;;;;;14.80;8.60;;;24.80;99.90;;;;;;4994396;28;20030;-89
2021/06/18 10:33:26;;;;;;;20.58;9.27;;;24.80;99.90;;;;;;4995721;28;20726;-89
2021/06/18 10:36:09;;;;;;;19.85;9.82;;;24.80;99.90;;;;;;4994856;28;20025;-86
2021/06/18 10:38:37;;;;;;;17.33;8.90;;;24.80;99.90;;;;;;5012977;28;20018;-85
2021/06/18 10:41:17;;;;;;;12.50;8.18;;;24.80;99.90;;;;;;4994387;28;20022;-85
2021/06/18 10:43:42;;;;;;;11.05;7.43;;;24.80;99.90;;;;;;5012931;28;20022;-85
2021/06/18 10:46:16;;;;;;;13.98;7.75;;;24.70;99.90;;;;;;4994601;28;20609;-85
2021/06/18 10:48:51;;;;;;;9.23;7.15;;;24.70;99.90;;;;;;4995006;28;20137;-85
2021/06/18 10:51:29;;;;;;;9.55;6.07;;;24.80;99.90;;;;;;4994411;28;20022;-87
2021/06/18 10:54:04;;;;;;;13.07;7.47;;;24.80;97.90;;;;;;4994552;28;20037;-86
2021/06/18 10:56:45;;;;;;;10.55;7.03;;;24.80;99.50;;;;;;4994337;28;20478;-90
2021/06/18 10:59:35;;;;;;;13.10;6.30;;;24.80;99.90;;;;;;5005629;28;20557;-90
2021/06/18 11:02:34;;;;;;;9.40;5.82;;;24.80;96.00;;;;;;5014768;28;20128;-87
2021/06/18 11:05:06;;;;;;;11.25;6.70;;;24.90;95.60;;;;;;5014074;28;20035;-87
2021/06/18 11:07:42;;;;;;;12.63;7.32;;;25.00;98.30;;;;;;5014835;28;20057;-88
2021/06/18 11:10:09;;;;;;;11.13;7.25;;;24.90;99.80;;;;;;5014357;28;20025;-87
2021/06/18 11:12:39;;;;;;;10.43;6.10;;;24.90;99.90;;;;;;5014532;28;20482;-87
2021/06/18 11:15:13;;;;;;;10.90;6.32;;;24.90;99.10;;;;;;5015712;28;20506;-88
2021/06/18 11:17:45;;;;;;;11.23;6.03;;;25.00;98.80;;;;;;5014902;28;20026;-88
2021/06/18 11:20:14;;;;;;;7.55;6.20;;;24.90;98.80;;;;;;5014776;28;20029;-88
2021/06/18 11:22:53;;;;;;;8.10;6.40;;;25.00;99.60;;;;;;5015011;28;20056;-88
2021/06/18 11:25:40;;;;;;;9.60;6.00;;;24.90;99.90;;;;;;5015561;28;20160;-88
2021/06/18 11:30:59;;;;;;;12.57;7.45;;;25.00;98.20;;;;;;5031799;28;20091;-89
2021/06/18 11:33:46;;;;;;;13.63;8.07;;;25.10;97.40;;;;;;5015601;28;20099;-89
2021/06/18 11:36:20;;;;;;;10.55;7.80;;;25.10;98.90;;;;;;5014036;28;20117;-89
2021/06/18 11:39:08;;;;;;;12.02;7.93;;;25.10;99.90;;;;;;5016424;28;20179;-90
2021/06/18 11:41:41;;;;;;;13.65;8.07;;;25.00;99.90;;;;;;5033216;28;20466;-88
2021/06/18 11:44:10;;;;;;;11.43;7.40;;;25.00;99.90;;;;;;5014627;28;20029;-87
2021/06/18 11:46:37;;;;;;;10.55;7.47;;;25.00;99.90;;;;;;5014039;28;20037;-88
2021/06/18 11:49:30;;;;;;;10.27;7.40;;;24.90;99.90;;;;;;5013706;28;20034;-88
2021/06/18 11:52:02;;;;;;;8.57;6.90;;;24.90;99.90;;;;;;5011146;28;20033;-88
2021/06/18 11:54:31;;;;;;;11.95;7.60;;;24.90;99.90;;;;;;5013796;28;20026;-88
2021/06/18 11:57:12;;;;;;;12.75;7.85;;;25.00;99.10;;;;;;5032088;28;20339;-89
2021/06/18 11:59:39;;;;;;;9.98;7.68;;;25.00;99.90;;;;;;5013745;28;20030;-88
2021/06/18 12:02:20;;;;;;;9.75;7.60;;;25.00;99.90;;;;;;5032086;28;20045;-88
2021/06/18 12:04:58;;;;;;;10.80;7.40;;;25.00;99.90;;;;;;4992870;28;20161;-88
2021/06/18 12:07:31;;;;;;;10.52;7.78;;;24.90;99.90;;;;;;4997484;28;20466;-87
2021/06/18 12:10:22;;;;;;;10.68;7.10;;;24.90;99.90;;;;;;5014818;28;20513;-88
2021/06/18 12:12:49;;;;;;;12.57;7.50;;;24.90;99.90;;;;;;4998111;28;20060;-88
2021/06/18 12:15:26;;;;;;;10.30;7.20;;;24.90;99.90;;;;;;5013113;28;20048;-87
2021/06/18 12:17:57;;;;;;;9.52;6.68;;;24.90;99.90;;;;;;4997464;28;20018;-89
2021/06/18 12:20:31;;;;;;;13.40;7.00;;;25.00;98.80;;;;;;4997520;28;20044;-88
2021/06/18 12:22:57;;;;;;;9.07;6.82;;;25.10;95.80;;;;;;5015235;28;20386;-88
2021/06/18 12:25:23;;;;;;;11.75;7.43;;;25.20;96.50;;;;;;4997037;28;20021;-88
2021/06/18 12:27:54;;;;;;;11.73;8.13;;;25.40;96.10;;;;;;4997377;28;20029;-88
2021/06/18 12:30:20;;;;;;;11.43;7.38;;;25.50;97.60;;;;;;4996328;28;20033;-88
2021/06/18 12:32:47;;;;;;;9.05;6.40;;;25.50;97.70;;;;;;5014354;28;20220;-88
2021/06/18 12:35:16;;;;;;;9.30;5.13;;;25.60;97.00;;;;;;4996954;28;20033;-89
2021/06/18 12:37:52;;;;;;;7.45;5.35;;;25.70;92.90;;;;;;4997336;28;20026;-89
2021/06/18 12:40:28;;;;;;;10.52;5.15;;;25.70;94.70;;;;;;5014267;28;20053;-88
2021/06/18 12:42:56;;;;;;;10.20;4.80;;;25.80;91.90;;;;;;5014609;28;20068;-88
2021/06/18 12:45:29;;;;;;;5.77;4.27;;;25.80;93.10;;;;;;4997323;28;20080;-89
2021/06/18 12:48:11;;;;;;;8.57;4.40;;;25.90;92.60;;;;;;4997459;28;20034;-87
2021/06/18 12:50:40;;;;;;;6.20;4.50;;;26.00;91.40;;;;;;4996815;28;20491;-88
2021/06/18 12:53:14;;;;;;;6.75;4.15;;;26.00;92.80;;;;;;4997633;28;20030;-88
2021/06/18 12:55:43;;;;;;;7.45;4.70;;;26.10;89.70;;;;;;4996850;28;20030;-87
2021/06/18 12:58:20;;;;;;;8.95;4.07;;;26.10;92.90;;;;;;4998381;28;20022;-88